Race Results for
IC3 Dash for Cash
Pleasanton, CA
(Event Information)
View By:
Criterium on 06/04/2011

Note: Ranking points are NOT upgrade points. An explanation of ranking points can be found here.


Men - Cat4/5 - Master - 35-99

 Place Points NameCity, StateTime USAC #BibTeam
1351.19Myron Reyes   San Ramon, CA00:00:00.00 141386  518 Tri Valley Velo
2357.89Robert VanTuyl   Pleasanton, CA00:00:00.00 333852  529 Team IC3
3364.59Jason Neu   Los Gatos, CA00:00:00.00 305688  514 SJBC
4371.29Steve Ball   Napa, CA00:00:00.00 59338  500 Portocork Round Pond Racing
5377.99Sean Odom   Carmichael, CA00:00:00.00 223061  515 Rio Strada Racing
6384.69Tony Dzoan   Union City, CA00:00:00.00 334594  505 Team Fremont / FFBC powered by Chipotle
7391.39Chris Menicou   Fremont, CA00:00:00.00 314296  513 Team Fremont FFBC
8398.09Christian Parker   San Mateo, CA00:00:00.00 213926  533 CoreTechs Cycling Team
9404.79Emilio Alvarez   Rutherford, CA00:00:00.00 306712  537 
10411.49James Allen   Danville, CA00:00:00.00 287305  539 Webcor/Alto Velo
11418.19Serge Plasschaert   San Jose, CA00:00:00.00 195521  528 Team ICCC
12424.89Peter Tousignant   Belmont, CA00:00:00.00 231855  523 third pillar
13431.59Charles Himes   Santa Rosa, CA00:00:00.00 16249  535 Windsor Bicycle Center Cycling
14438.29Sol Bechtold (1 - Cat5)   Pleasanton, CA00:00:00.00 331848  538 Christian Cycling-Hammer Nutri
15444.99David Dalton   Danville, CA00:00:00.00 287122  502 Tri Valley Velo
16451.69Hussein Saffouri   Piedmont, CA00:00:00.00 41848  521 Berkeley Bike Club (BBC)
17458.39Chris Meldner   Crockett, CA00:00:00.00 322052  512 
18465.09Mark Klein   Pleasanton, CA00:00:00.00 304850  532 Christian Cycling-Hammer Nutri
19471.79Chris Scheetz   Los Altos, CA00:00:00.00 216916  534 CoreTechs Cycling Team
20478.49Steve Rosefield   Pleasanton, CA00:00:00.00 298343  520 Tri Valley Velo
21485.19Lee MacDonald (2 - Cat5)   Martinez, CA00:00:00.00 21989  510 
22491.89Nathan Trueblood   Pleasanton, CA00:00:00.00 195397  524 Tri Valley Velo
23498.59Alan Nevin   Tracy, CA00:00:00.00 295013  536 IronDataThirstyBearCycling.com
24505.29Eric Clauss   San Francisco, CA00:00:00.00 198040  531 Squadra Ovest Cycling
25511.99Xeno Rasmusson   San Ramon, CA00:00:00.00 29197  517 Tri Valley Velo
26518.69Kevin Davidson   Danville, CA00:00:00.00 335464  503 Taleo Racing
27525.39John Wilde   San Francisco, CA00:00:00.00 225246  527 CoreTechs Cycling Team
28532.09AdamVanMinh Martin   Antioch, CA00:00:00.00 57185  511 Tri Valley Velo
29Tom LARIS   00:00:00.00  530 
30545.49Roger Sohn   San Francisco, CA00:00:00.00 318582  540 -------
DNSGonzalo Carrillo   Fremont, CA00:00:00.00 308032  501 Team Fremont/FFBC powered by Chipotle
DNSAron Digumarthi   Cupertino, CA00:00:00.00 303522  504 SJBC
DNSJames Good   Oakland, CA00:00:00.00 254097  506 Taleo Racing
DNSWilliam Habenick   Kapolei, HI00:00:00.00 307132  507 Brentwood Bike Co.
DNSHendrik (Erik) Hofman   Danville, CA00:00:00.00 285592  508 Tri Valley Velo
DNSThomas Leach   Spokane Valley, WA00:00:00.00 102339  509 Team Toms
DNSGordon Richardson   Sacramento, CA00:00:00.00 198509  519 
DNSRusty Stapp   Pleasanton, CA00:00:00.00 287480  522 Tri Valley Velo
DNSJim Volsansky   San Ramon, CA00:00:00.00 203442  525 Tri Valley Velo
DNSMike Whitlatch   Half Moon Bay, CA00:00:00.00 333046  526 Los Gatos Bicycle Racing Club
DNPNorrie Quinn   Brentwood, CA00:00:00.00 271110  516 Tri Valley Velo

Men - Cat3/4 - Master - 45-99

 Place Points NameCity, StateTime USAC #BibTeam
1305.52Craig Stewart   Orinda, CA00:00:00.00 205201  406 Team Hammer Nutrition
2328.42Stefano Schiaffino   Pleasanton, CA00:00:00.00 257173  411 Christian Cycling-Hammer Nutri
3351.32Benjamin Holland (1 - Cat4)   Castro Valley, CA00:00:00.00 258722  412 Christian Cycling-Hammer Nutri
4374.22Kevin Farrauto   Livermore, CA00:00:00.00 662  410 SJBC
5397.12Steve Rosefield (2 - Cat4)   Pleasanton, CA00:00:00.00 298343  409 Tri Valley Velo
6420.02Mark Vandenberghe   Lafayette, CA00:00:00.00 36393  408 Wells Fargo Racing Team
7442.92James Allen   Danville, CA00:00:00.00 287305  407 Webcor/Alto Velo
8465.82Wayne Cottrell   San Clemente, CA00:00:00.00 48613  401 Ogden One
9488.72Mark Sneed   Oakland, CA00:00:00.00 290626  404 Major Motion
DNSPhilippe Azoulay   San Jose, CA00:00:00.00 207662  400 SJBC
DNSKeith Griffin (Cat4)   Stockton, CA00:00:00.00 14170  402 Kinetic Cycles/GBI
DNSRichard Nichols   Danville, CA00:00:00.00 286421  403 Tri Valley Velo
DNSMichael Woodburn   San Ramon, CA00:00:00.00 341576  405 Wells Fargo

Men - Cat1/2/3 - Open

 Place Points NameCity, StateTime USAC #BibTeam
1104.48Steve Reaney   San Jose, CA00:00:00.00 133288  113 California Giant Berry Farms/Specialized
2111.20Daniel Holloway   Morgan Hill, CA00:00:00.00 181725  133 UCI CT: Kelly Benefit Strategi
3117.92Joshua Carling   Rancho Cordova, CA00:00:00.00 234584  101 Michael David Winery Cycling Team
4124.64Sean Smith   Oakland, CA00:00:00.00 204018  134 Webcor/Alto Velo
5131.36John Wilk   Oakland, CA00:00:00.00 199951  121 Webcor/Alto Velo
6138.08Rainier Schaefer   Sanfrancisco, CA00:00:00.00 304249  115 Godspeed Courier / Mojo Bicycles
7144.80Luther Kopf (1 - Cat2)   Oakland, CA00:00:00.00 205705  109 Dolce Vita Cycling
8151.52Rand Miller   San Francisco, CA00:00:00.00 182990  132 Webcor/Alto Velo
9158.24Marcus Smith   Pleasanton, CA00:00:00.00 209193  129 Team Specialized Racing Junior
10164.96Joe Dickerson   Los Gatos, CA00:00:00.00 306664  138 McGuire Cycling Team
11171.68William Myers   Carmichael, CA00:00:00.00 306325  128 Fremont Bank Cycling Team
12178.40Adam Ross   Folsom, CA00:00:00.00 167796  114 Fremont Bank Cycling Team
13185.12Kenny Strickland   San Ramon, CA00:00:00.00 270965  118 SJBC
14191.84Todd Stone   Carmichael, CA00:00:00.00 249318  117 Fremont Bank Cycling Team
15198.56Michael Hernandez   Oakland, CA00:00:00.00 136641  106 Great Basin Imaging/Kinetic Cycles
16205.28Hendrik Pohl   San Francisco, CA00:00:00.00 207753  139 Webcor/Alto Velo
17212.00Ethan Atkins   San Francisco, CA00:00:00.00 224998  144 Metromint Cycling
18218.72Mike Gadow (2 - Cat2)   Dublin, CA00:00:00.00 12619  143 SJBC
19225.44Nathanael Christensen   Clements, CA00:00:00.00 239919  102 Williams Cycling
20232.16Matthew Ream (3 - Cat2)   Verdi, NV00:00:00.00 211441  125 Great Basin Imaging Cycling Te
21238.88William (Billy) Crane   Mountain View, CA00:00:00.00 138129  135 Webcor/Alto Velo
22245.60Cody Tapley   Citrus Heights, CA00:00:00.00 234610  119 Whole Athlete/Specialized
DNPEllis Anderson   Moraga, CA00:00:00.00 274504  996 Tieni Duro Junior Cycling Team
DNPJ Clifford   Roseville, CA00:00:00.00 232661  996 Team Bicycles Plus/Sierra Nevada
DNPAlton Dunnigan   Pleasant Hill, CA00:00:00.00 157044  996 Bicycle Planet
DNPRyan Johnson   San Francisco, CA00:00:00.00 288483  996 Team Mike's Bikes
DNPNick Kinney (Cat3)   Windsor, CA00:00:00.00 255460  996 Whole Athlete/Specialized
DNPDavid Puglia   Saratoga, CA00:00:00.00 180139  996 Los Gatos Bicycle Racing Club
DNPSteve Stewart   Los Gatos, CA00:00:00.00 34158  996 Los Gatos
DNPRussell White   Lafayette, CA00:00:00.00 236024  996 Davis Bike Club
DNPMatt Schaupp   Watsonville, CA00:00:00.00 311816  996 
DNPRob Brandt   Ennis, MT00:00:00.00 298803  996 Great Basin Imaging Cycling Te
DNPSteve Thomsen   Reno, NV00:00:00.00 245436  996 Great Basin Imaging Cycling Te
DNPAaron Hanna   San Jose, CA00:00:00.00 204722  996 Los Gatos
DNPKeven Bricknell (Cat2)   San Francisco, CA00:00:00.00 253261  996 Team Mike's Bikes
DNPKalani Hines   San Francisco, CA00:00:00.00 219316  996 Metromint Cycling
DNPRory Osbrink   Pleasanton, CA00:00:00.00 218676  996 Team Fremont/FFBC powered by C
DNPTed Toribio   Elk Grove00:00:00.00 88963  996 Christian Cycling-Hammer Nutri
DNPBenjamin Stern   Mequon, WI00:00:00.00 238365  996 Team Mike's Bikes
DNPDuane Bolt   Pleasanton, CA00:00:00.00 47096  996 Christian Cycling-Hammer Nutri
DNPJason Brown   Lodi, CA00:00:00.00 53115  996 Great Basin Imaging Cycling Te
DNPMatt Kramer   Los Gatos, CA00:00:00.00 183871  996 Great Basin Imaging/Kinetic Cy
DNPJames LaBerge   Napa, CA00:00:00.00 221376  996 Team Specialized Racing Juniors
DNPDean LaBerge   Napa, CA00:00:00.00 67041  996 Team Specialized Racing Masters

Men - Cat1/2/3 - Master - 35-99

 Place Points NameCity, StateTime USAC #BibTeam
1143.61Steve Reaney   San Jose, CA00:00:00.00 133288  222 California Giant Berry Farms/S
2153.51Matthew Ream (1 - Cat2)   Verdi, NV00:00:00.00 211441  210 Great Basin Imaging | Kinetic Cycles Racing Team
3163.41Michael Hernandez   Oakland, CA00:00:00.00 136641  202 Great Basin Imaging/Kinetic Cycles
4173.31Emory Ball   Raleigh, NC00:00:00.00 179031  216 Audi
5183.21Chris Wire   Saratoga, CA00:00:00.00 152176  217 SJBC
6193.11Matt Kramer   Los Gatos, CA00:00:00.00 183871  204 Great Basin Imaging/Kinetic Cycles
7203.01Mark Andersen   San Francisco, CA00:00:00.00 290814  215 Audi
8212.91Jason Brown   Lodi, CA00:00:00.00 53115  218 Great Basin Imaging Cycling Te
9222.81David Porter   San Jose, CA00:00:00.00 126711  208 Bay101 Racing
10232.71David Avila   Emerald Hills, CA00:00:00.00 55625  221 One Team Racing
11242.61Jason Smith   Kensington, CA00:00:00.00 53119  220 Dolce Vita Cycling
12252.51Keith DeFiebre   Prunedale, CA00:00:00.00 9046  219 Central Coast Cycling Club
13262.41Steve Thomsen   Reno, NV00:00:00.00 245436  214 Great Basin Imaging Cycling Te
14272.31Aaron Hanna   San Jose, CA00:00:00.00 204722  224 Los Gatos
15282.21Robert White   Morgan Hill, CA00:00:00.00 97873  213 Bay101 Racing
16292.11Kelly Higgins (1 - Cat3)   San Jose, CA00:00:00.00 223520  223 Bay101 Racing
17302.01Chris Ott   San Jose, CA00:00:00.00 26920  226 
18311.91Nicholas Carlevato   Carson City, NV00:00:00.00 64351  200 Great Basin Imaging Cycling Team/Kinetic Cycles
19321.81John Licatesi   Davis, CA00:00:00.00 183265  206 Davis Bike Club
20331.71Paul Taylor   Brentwood, CA00:00:00.00 207281  212 Metromint Cycling
21341.61Heather Lipana   Folsom, CA00:00:00.00 333090  227 Rio Strada Racing
22351.51Steve Stewart   Los Gatos, CA00:00:00.00 34158  211 Los Gatos
DNSRon Castia (Cat2)   Livermore, CA00:00:00.00 144264  201 IronDataThirstyBearCycling.com
DNSDennis Hopp   San Jose, CA00:00:00.00 54895  203 SJBC
DNSDean LaBerge   Napa, CA00:00:00.00 67041  205 Team Specialized Racing Masters
DNSMichael O'Rourke   Auburn, CA00:00:00.00 204496  207 SAFEWAY/PureRed Creative/Bicycles Plus
DNSJonathan Racine   San Jose, CA00:00:00.00 200129  209 Great Basin Imaging / Kinetic Cycles

Men - Cat1/2/3 - Master - 45-99

 Place Points NameCity, StateTime USAC #BibTeam
1191.74Mike Gadow (1 - Cat2)   Dublin, CA00:00:00.00 12619  611 SJBC
2202.37Chris Wire   Saratoga, CA00:00:00.00 152176  608 SJBC
3213.00Craig Stewart   Orinda, CA00:00:00.00 205201  606 Hammer Nutrition
4223.63Jeremy Wire   Menlo Park, CA00:00:00.00 285056  609 SJBC
5234.26David Acri   San Francisco00:00:00.00 233803  610 Audi
6244.89Duane Bolt   Pleasanton, CA00:00:00.00 47096  614 Christian Cycling-Hammer Nutri
7255.52Steve Stewart   Los Gatos, CA00:00:00.00 34158  605 Los Gatos
8266.15Robert White   Morgan Hill, CA00:00:00.00 97873  607 Bay101 Racing
9276.78Mike Nissen   Livermore, CA00:00:00.00 296024  612 Taleo Racing
10287.41Stefano Schiaffino   Pleasanton, CA00:00:00.00 257173  613 Christian Cycling-Hammer Nutri
11Gary Birch   00:00:00.00  615 Team Fremont/FFBC powered by C
DNSMichael Boehme   Windsor, CA00:00:00.00 252576  996 Colavita Racing-Norcal
DNSRick Lawton   Pleasanton, CA00:00:00.00 141309  996 Wells Fargo Racing Team
DNSHeather Lipana   Folsom, CA00:00:00.00 333090  996 Rio Strada Racing
DNSRichard Nichols   Danville, CA00:00:00.00 286421  996 Tri Valley Velo
DNSMichael O'Rourke   Auburn, CA00:00:00.00 204496  996 SAFEWAY/PureRed Creative/Bicycles Plus

Men - Cat1/2/3 - Master - 55-99

 Place Points NameCity, StateTime USAC #BibTeam
1317.41Mark Caldwell   Moraga, CA00:00:00.00 40039  677 morgan stanley smith barney/specialized
2340.93Brian Fessenden   Orinda, CA00:00:00.00 54692  678 Morgan Stanley Cycling Team
3364.45Greg Bollella   Redwood City, CA00:00:00.00 235126  676 Webcor / Alto Velo
4387.97David Puglia   Saratoga, CA00:00:00.00 180139  679 Los Gatos Bicycle Racing Club
5411.49John Berg   Fremont, CA00:00:00.00 50578  675 Team Fremont/FFBC powered by Chipotle
6435.01John Schaupp    Watsonville, CA00:00:00.00 48510  681 Team Bicycle Trip/Symantec
DNSStan Urban   San Rafael, CA00:00:00.00 178098  996 Morgan Stanley Smith Barney/Specialized

Men - Cat 5 - Open

 Place Points NameCity, StateTime USAC #BibTeam
1540.00franco campilongo   Menlo Park, CA00:00:00.00 261918  Form Fitness Palo Alto
2550.00giuseppe errico   Mountain View, CA00:00:00.00 353204  form fitness
3Ryan CAPES   00:00:00.00  10 Taleo Racing
4570.00Pete Hagens   Shingle Springs, CA00:00:00.00 353578  Bicycle Planet
5580.00John Weiskirch   Danville, CA00:00:00.00 310246  Taleo Racing
6590.00Martin Choo   Sunnyvale Ca00:00:00.00 259644  
DNSERIC BROCKWAY   Santa Rosa, CA00:00:00.00 286737  Windsor Bicycle Center
DNSLael Heinig   San Ramon, CA00:00:00.00 308541  Tri-Valley Triathlon Club
DNSJohn Lenoach   Lafayette, CA00:00:00.00 335218  SJBC
DNSEthan Smith   San Francisco, CA00:00:00.00 331724  

Men - Cat 4 - Open

 Place Points NameCity, StateTime USAC #BibTeam
1350.59Tim Tsuruda   Sunnyvale, CA00:00:00.00 314158  928 Chica Sexy
2358.00Curtis Hong   Dublin, CA00:00:00.00 305875  909 SJBC
3365.41Mackenzie Kelly   Santa Cruz, CA00:00:00.00 286297  936 
4372.82Marc Mendoza   Santaclara, CA00:00:00.00 304967  917 SJBC
5380.23Peter Kenton   Oakland, CA00:00:00.00 307426  937 Tieni Duro Junior Cycling Team
6387.64Travis Lyons   Walnut Creek, CA00:00:00.00 320598  913 Tieni Duro
7395.05Peter Rumble   Santa Rosa, CA00:00:00.00 242773  921 ECHELON RACING DEVELOPMENT
8402.46Branton Curt   Saratoga, CA00:00:00.00 218287  903 Los Gatos
9409.87Christian Parker   San Mateo, CA00:00:00.00 213926  918 CoreTechs Cycling Team
10417.28Arthur Heredia   Santa Cruz, CA00:00:00.00 308471  906 University of California-Santa Cruz
11424.69Chris Hernikl   Pleasant Hill, CA00:00:00.00 304027  907 Taleo Racing
12432.10Bill Quach   Houston, TX00:00:00.00 327834  942 Brown University
13439.51Raoul MartinBlouin   Walnut Creek, CA00:00:00.00 303631  916 Taleo Racing
14446.92Mat Gordon   San Francisco, CA00:00:00.00 191313  939 Fusion Sport USA
15454.33Nathaniel Lee   Notre Dame, IN00:00:00.00 282524  910 Notre Dame
16461.74juan rosas   San Jose, CA00:00:00.00 332154  912 bike station aptos
17469.15Kalman Zeiger   San Francisco, CA00:00:00.00 237651  935 Chica Sexy
18476.56Michael Heywood   San Francisco, CA00:00:00.00 268236  908 Kovarus/ABTA
19483.97AdamVanMinh Martin   Antioch, CA00:00:00.00 57185  915 Tri Valley Velo
20491.38Michael Manning   Livermore, CA00:00:00.00 315252  914 
21498.79Chris Scheetz   Los Altos, CA00:00:00.00 216916  924 CoreTechs Cycling Team
22506.20Matthew Cox   Walnut Creek, CA00:00:00.00 302521  902 Tri Valley Velo
23513.61Eric Clauss   San Francisco, CA00:00:00.00 198040  938 Squadra Ovest Cycling
24521.02Frank Yang   San Francisco00:00:00.00 288185  934 Berkeley Bicycle Club
25528.43Deniz Warraich   San Ramon, CA00:00:00.00 329038  931 Tri Valley Velo
26535.84Hussein Saffouri   Piedmont, CA00:00:00.00 41848  923 Berkeley Bike Club (BBC)
27543.25Oscar Gonzalez   San Jose, CA00:00:00.00 303922  940 SJBC
28550.66Faron Ryan   Gilroy, CA00:00:00.00 280733  922 Bay 101 Racing
29558.07Andrew Thomson   Dublin, CA00:00:00.00 325008  926 Tri-Valley Velo
30565.48John Wilde   San Francisco, CA00:00:00.00 225246  933 CoreTechs Cycling Team
31572.89Brandon Field   Mendocino, CA00:00:00.00 318276  904 Taleo Racing
32580.30Patxi Uriz   Fremont, CA00:00:00.00 331152  929 Tri Valley Velo
DNSOscar Aguilera   Concord, CA00:00:00.00 271253  900 N/A
DNSEric Chi   Cupertino, CA00:00:00.00 223566  901 Webcor/Alto Velo
DNSJames Good   Oakland, CA00:00:00.00 254097  905 Taleo Racing
DNSJustin Leong   Los Altos, CA00:00:00.00 280621  911 SJBC
DNSFrank Ravizza   Brentwood, CA00:00:00.00 309418  919 VSRT/Livermore Cyclery
DNSCarlos Vargas   Milwaukee, WI00:00:00.00 163726  930 SKLZ Cycling Team
DNSMike Whitlatch   Half Moon Bay, CA00:00:00.00 333046  932 Los Gatos Bicycle Racing Club
DNPSteve Rosefield   Pleasanton, CA00:00:00.00 298343  920 Tri Valley Velo
DNPReid Smith   Moraga, CA00:00:00.00 300086  925 Tieni Duro
DNPPeter Tousignant   Belmont, CA00:00:00.00 231855  927 third pillar
DNPCharles Himes   Santa Rosa, CA00:00:00.00 16249  941 Windsor Bicycle Center Cycling
DNPXeno Rasmusson   San Ramon, CA00:00:00.00 29197  943 Tri Valley Velo

Men - Cat 3 - Open

 Place Points NameCity, StateTime USAC #BibTeam
1205.10Rob Brandt   Ennis, MT00:00:00.00 298803  306 Great Basin Imaging / Kinetic Cycles
2214.18Steve Thomsen   Reno, NV00:00:00.00 245436  331 Great Basin Imaging Cycling Team/Kinetic Cycles
3223.26Craig Fellers   Novato, CA00:00:00.00 275223  309 Red Peloton
4232.34Cody Tapley   Citrus Heights, CA00:00:00.00 234610  329 Whole Athlete/Specialized
5241.42Keven Bricknell   San Francisco, CA00:00:00.00 253261  336 Team Mike's Bikes
6250.50Jonathan Christensen   Clements, CA00:00:00.00 250315  308 DJs Excavation/Delta Velo
7259.58Chad Rosser   San Jose, CA00:00:00.00 286506  323 SJBC
8268.66Matt Schaupp   Watsonville, CA00:00:00.00 311816  333 
9Greg MIRANDA   00:00:00.00  338 
10286.82Anthony Borba   Campbell, CA00:00:00.00 255377  305 Third Pillar
11295.90Ellis Anderson   Moraga, CA00:00:00.00 274504  302 Tieni Duro Junior Cycling Team
12304.98Marco Carvajal   San Francisco, CA00:00:00.00 305357  307 Cal Giant-Specialized
13314.06Matt Abbott   Santa Rosa, CA00:00:00.00 260224  300 Red Peloton
14323.14Jodi Birrell   Morgan Hill, CA00:00:00.00 260006  303 Bay 101 Racing
15332.22Rey Surla   Fremont, CA00:00:00.00 91423  328 Team Fremont/FFBC Powered by Chipotle
16341.30Rory Osbrink   Pleasanton, CA00:00:00.00 218676  320 Team Fremont/ FFBC powered by Chipotle
17350.38Stu Streeter   Cameron Park, CA00:00:00.00 79067  327 Team Bicycles Plus/Sierra Nevada
18359.46Justin Leopold   Independence, MO00:00:00.00 299868  317 Celerity Cycling p/b Brooks Systems
19368.54William Ruffner   Morgan Hill, CA00:00:00.00 220929  324 Bay 101 Racing
20377.62Kalani Hines   San Francisco, CA00:00:00.00 219316  311 metromint cycling
21386.70Paul Taylor   Brentwood, CA00:00:00.00 207281  330 Metromint Cycling
22395.78David Porter   San Jose, CA00:00:00.00 126711  321 Bay101 Racing
23404.86Michael Holt   Morgan Hill, CA00:00:00.00 75334  312 Bay101 Racing
24413.94Ryan Johnson   San Francisco, CA00:00:00.00 288483  313 Team Mike's Bikes
25423.02Dan Adkins   Oakland, CA00:00:00.00 177509  301 Metromint Cycling
DNSMichael Boehme   Windsor, CA00:00:00.00 252576  996 Colavita Racing-Norcal
DNSTodd Kohli   San Francisco, CA00:00:00.00 198414  996 Kryki Sports Audi Cycling
DNSChris LaBerge   Napa, CA00:00:00.00 229950  996 Team Specialized Racing Juniors
DNSJonathan Racine   San Jose, CA00:00:00.00 200129  996 Great Basin Imaging / Kinetic Cycles
DNSErnest Gallardo   Greenfield, CA00:00:00.00 90586  996 Vos Racing
DNPNick Kinney   Windsor, CA00:00:00.00 255460  314 Whole Athlete/Specialized
DNPReese Levine   Orinda, CA00:00:00.00 263998  318 Tieni Duro
DNPJohn Licatesi   Davis, CA00:00:00.00 183265  319 Davis Bike Club
DNPBernhard Stonas   Hayward, CA00:00:00.00 67169  326 BBC
DNPRobert White   Morgan Hill, CA00:00:00.00 97873  332 Bay101 Racing
DNPNicholas Carlevato   Carson City, NV00:00:00.00 64351  334 Great Basin Imaging Cycling Te
DNPKelly Higgins   San Jose, CA00:00:00.00 223520  335 Bay101 Racing
DNPDavid Mayer   Portola Valley, CA00:00:00.00 120501  337 Third Pillar

Men - Junior - 10-12

 Place Points NameCity, StateTime USAC #BibTeam
1Antonio Schiaffino   Pleasanton, CA00:00:00.00 332692  75 Christian Cycling-Hammer Nutri

Men - Junior - 13-14

 Place Points NameCity, StateTime USAC #BibTeam
1Robbie Farrens   Stockton, CA00:00:00.00 289433  52 DJs Produce - Rocket Sports-Trek
2Giovanni Vera   Livermore, CA00:00:00.00 336456  54 
DNSJonathan Christensen   Clements, CA00:00:00.00 250315  51 DJs Excavation/Delta Velo
DNSJustin Leong   Los Altos, CA00:00:00.00 280621  53 SJBC

Men - Junior - 15-16

 Place Points NameCity, StateTime USAC #BibTeam
1337.55Henry Nelson   Oakland, CA00:00:00.00 289117  61 Tieni Duro
2366.17Reid Smith   Moraga, CA00:00:00.00 300086  62 Tieni Duro
3394.79Reese Levine   Orinda, CA00:00:00.00 263998  60 Tieni Duro
4423.41Gabe Multer   Santa Cruz, CA00:00:00.00 331142  64 San Jose Bicycle Club
5452.03Troy Strickland   San Ramon00:00:00.00 279824  63 SJBC
6480.65Fernando Padilla   Vallejo00:00:00.00 341214  65 

Women - Cat 4 - Open

 Place Points NameCity, StateTime USAC #BibTeam
1432.54Kathryn Styer   San Francisco, CA00:00:00.00 309920  712 Early Bird Women's Developmental Cycling Team
2451.76Brett Ortiz   San Francisco, CA00:00:00.00 271361  708 Dolce Vita
3470.98June Nguyen   Santa Rosa00:00:00.00 277526  707 Precision Stone Racing
4Alicia GILBREATH   00:00:00.00  704 
5509.42Stephanie Buckner   West Sacramento, CA00:00:00.00 337666  701 Red Peloton
6528.64Cathy Morgan   Nashville, TN00:00:00.00 204300  706 Team Roaring Mouse
DNSPooja Bhatia   San Jose, CA00:00:00.00 306273  700 SJBC
DNSKate Dougherty   Fremont, CA00:00:00.00 329500  702 Tri Valley Velo
DNSJill Eyres   Montara, CA00:00:00.00 282468  703 Team TIBCO II
DNSTerri Mahannah   Reno, NV00:00:00.00 333450  705 Tri Valley Velo
DNSDarien Reed   San Francisco, CA00:00:00.00 338764  709 
DNSStella Rosefield   Pleasanton, CA00:00:00.00 304152  710 Tri Valley Velo
DNSKelly Snow   San Francisco, CA00:00:00.00 255117  711 Dolce Vita Cycling

Women - Cat 3 - Open

 Place Points NameCity, StateTime USAC #BibTeam
1311.34Heather Lipana   Folsom, CA00:00:00.00 333090  843 Rio Strada Racing
2333.01Cybil Silberman   San Francisco, CA00:00:00.00 325510  846 Early Bird Womens Developmenta
3354.68Traci Kroll   Richmond, CA00:00:00.00 220386  842 
4376.35Sarah Conover   Auburn, CA00:00:00.00 334218  840 Rio Strada Racing
5398.02Elisabeth Scheder-Beschin   Cotati, CA00:00:00.00 307274  844 Early Bird Womens Developmenta
6419.69Holly Roberts   Sunnyvale, CA00:00:00.00 203177  808 SJBC
7441.36Taylor Meilahn   Antioch, CA00:00:00.00 196485  814 SJBC
DNSRhonda Serr   Reno00:00:00.00 278473  845 Dolce Vita Cycling
DNSAnn Stuart   Sacramento, CA00:00:00.00 250365  847 Touchstone Climbing

Women - Pro/Cat 1/2 - Open

 Place Points NameCity, StateTime USAC #BibTeam
1208.15Mary Ellen Ash   Menlo Park, CA00:00:00.00 254874  800 Metromint Cycling
2323.46Elis Bradshaw (1 - Cat1)   Oakland, CA00:00:00.00 208125  801 Touchstone Climbing
3438.77Holly Roberts   Sunnyvale, CA00:00:00.00 203177  807 SJBC
DNSLaurel Green   Windsor, CA00:00:00.00 75728  804 Health Is Wealth
DNSEmily Weinert   Atlanta, GA00:00:00.00 282470  813 Team TIBCO II

Report missing or incorrect license numbers

Volkswagen
ShimanoSpySierra NevadaUSACDFBonk Breaker
UCI USA Cycling is the official governing body for all disciplines of competitive cycling in the United States. The 501c3, membership-based organization aims both to achieve sustained success in international cycling competition and to grow competitive cycling in America while delivering an exceptional customer experience.
View Children's Online Privacy Protection Policy
US Olympic Committee